Terminal Aerodrome Forecast
Issued by NWS Omaha/Valley, NE

Home | Current Version | Previous Version | Text Only | Print | Product List | Glossary Off
Versions: 1 2 3 4 5 6 7 8 9 10 11 12 13 14 15 16 17 18 19 20 21 22 23 24 25 26 27 28 29 30 31 32 33 34 35 36 37 38 39 40 41 42 43 44 45 46 47 48 49 50

000
FTUS43 KOAX 280520
TAFOFK
TAF
KOFK 280520Z 2806/2906 12010KT P6SM OVC050
      TEMPO 2806/2808 4SM TSRA BKN028CB
     FM280900 02009KT 4SM BR OVC025
     FM281100 34008KT 1 1/2SM BR OVC007
     FM281500 34009KT 4SM BR OVC007
     FM281600 35010KT P6SM OVC015
     FM281800 36010KT P6SM BKN050
     FM282300 02006KT P6SM SKC=

USA.gov is the U.S. government's official web portal to all federal, state and local government web resources and services.